sensor_id;sensor_type;location;lat;lon;timestamp;P1;durP1;ratioP1;P2;durP2;ratioP2
462;SDS011;218;51.902;9.542;2023-03-13T00:00:55;15.10;;;5.30;;
462;SDS011;218;51.902;9.542;2023-03-13T00:03:22;12.60;;;5.37;;
462;SDS011;218;51.902;9.542;2023-03-13T00:05:53;12.47;;;5.23;;
462;SDS011;218;51.902;9.542;2023-03-13T00:08:21;11.17;;;5.47;;
462;SDS011;218;51.902;9.542;2023-03-13T00:10:49;13.10;;;4.97;;
462;SDS011;218;51.902;9.542;2023-03-13T00:13:16;13.30;;;5.73;;
462;SDS011;218;51.902;9.542;2023-03-13T00:15:44;11.67;;;5.60;;
462;SDS011;218;51.902;9.542;2023-03-13T00:18:11;12.53;;;5.77;;
462;SDS011;218;51.902;9.542;2023-03-13T00:20:38;8.53;;;4.40;;
462;SDS011;218;51.902;9.542;2023-03-13T00:23:05;12.07;;;5.17;;
462;SDS011;218;51.902;9.542;2023-03-13T00:25:32;18.43;;;5.83;;
462;SDS011;218;51.902;9.542;2023-03-13T00:28:01;7.80;;;5.07;;
462;SDS011;218;51.902;9.542;2023-03-13T00:30:28;9.60;;;5.00;;
462;SDS011;218;51.902;9.542;2023-03-13T00:32:55;14.20;;;6.57;;
462;SDS011;218;51.902;9.542;2023-03-13T00:35:22;23.93;;;5.40;;
462;SDS011;218;51.902;9.542;2023-03-13T00:37:49;10.70;;;4.53;;
462;SDS011;218;51.902;9.542;2023-03-13T00:40:16;10.00;;;4.63;;
462;SDS011;218;51.902;9.542;2023-03-13T00:42:44;19.80;;;5.00;;
462;SDS011;218;51.902;9.542;2023-03-13T00:45:12;17.87;;;7.50;;
462;SDS011;218;51.902;9.542;2023-03-13T00:47:40;13.80;;;4.90;;
462;SDS011;218;51.902;9.542;2023-03-13T00:50:07;18.77;;;5.43;;
462;SDS011;218;51.902;9.542;2023-03-13T00:52:34;7.70;;;4.50;;
462;SDS011;218;51.902;9.542;2023-03-13T00:55:01;12.87;;;5.47;;
462;SDS011;218;51.902;9.542;2023-03-13T00:57:28;14.87;;;4.97;;
462;SDS011;218;51.902;9.542;2023-03-13T00:59:56;13.10;;;5.87;;
462;SDS011;218;51.902;9.542;2023-03-13T01:02:24;13.00;;;6.53;;
462;SDS011;218;51.902;9.542;2023-03-13T01:04:51;11.37;;;5.40;;
462;SDS011;218;51.902;9.542;2023-03-13T01:07:18;13.87;;;4.83;;
462;SDS011;218;51.902;9.542;2023-03-13T01:09:45;11.63;;;4.93;;
462;SDS011;218;51.902;9.542;2023-03-13T01:12:12;15.00;;;5.10;;
462;SDS011;218;51.902;9.542;2023-03-13T01:14:39;10.67;;;5.50;;
462;SDS011;218;51.902;9.542;2023-03-13T01:17:06;9.10;;;4.57;;
462;SDS011;218;51.902;9.542;2023-03-13T01:19:35;12.80;;;5.57;;
462;SDS011;218;51.902;9.542;2023-03-13T01:22:02;16.40;;;4.50;;
462;SDS011;218;51.902;9.542;2023-03-13T01:24:29;10.73;;;5.00;;
462;SDS011;218;51.902;9.542;2023-03-13T01:26:57;9.40;;;5.33;;
462;SDS011;218;51.902;9.542;2023-03-13T01:29:24;10.90;;;4.93;;
462;SDS011;218;51.902;9.542;2023-03-13T01:31:51;7.73;;;5.03;;
462;SDS011;218;51.902;9.542;2023-03-13T01:34:18;11.90;;;5.37;;
462;SDS011;218;51.902;9.542;2023-03-13T01:36:46;17.67;;;6.20;;
462;SDS011;218;51.902;9.542;2023-03-13T01:39:16;12.53;;;4.57;;
462;SDS011;218;51.902;9.542;2023-03-13T01:41:43;12.40;;;5.40;;
462;SDS011;218;51.902;9.542;2023-03-13T01:44:17;9.63;;;4.73;;
462;SDS011;218;51.902;9.542;2023-03-13T01:46:47;9.47;;;4.50;;
462;SDS011;218;51.902;9.542;2023-03-13T01:49:15;17.10;;;5.20;;
462;SDS011;218;51.902;9.542;2023-03-13T01:51:44;11.57;;;5.30;;
462;SDS011;218;51.902;9.542;2023-03-13T01:54:14;9.53;;;5.33;;
462;SDS011;218;51.902;9.542;2023-03-13T01:56:44;14.17;;;5.40;;
462;SDS011;218;51.902;9.542;2023-03-13T01:59:12;12.00;;;4.37;;
462;SDS011;218;51.902;9.542;2023-03-13T02:01:40;8.23;;;4.20;;
462;SDS011;218;51.902;9.542;2023-03-13T02:04:09;10.93;;;4.70;;
462;SDS011;218;51.902;9.542;2023-03-13T02:06:37;14.67;;;5.63;;
462;SDS011;218;51.902;9.542;2023-03-13T02:09:08;11.00;;;5.10;;
462;SDS011;218;51.902;9.542;2023-03-13T02:11:42;10.90;;;5.07;;
462;SDS011;218;51.902;9.542;2023-03-13T02:14:13;11.43;;;6.37;;
462;SDS011;218;51.902;9.542;2023-03-13T02:16:41;5.80;;;4.60;;
462;SDS011;218;51.902;9.542;2023-03-13T02:19:15;9.10;;;4.10;;
462;SDS011;218;51.902;9.542;2023-03-13T02:21:44;12.53;;;5.57;;
462;SDS011;218;51.902;9.542;2023-03-13T02:24:18;9.03;;;4.60;;
462;SDS011;218;51.902;9.542;2023-03-13T02:26:53;10.00;;;5.20;;
462;SDS011;218;51.902;9.542;2023-03-13T02:29:21;10.27;;;5.27;;
462;SDS011;218;51.902;9.542;2023-03-13T02:31:48;13.23;;;5.07;;
462;SDS011;218;51.902;9.542;2023-03-13T02:34:18;8.30;;;3.50;;
462;SDS011;218;51.902;9.542;2023-03-13T02:36:47;8.67;;;4.23;;
462;SDS011;218;51.902;9.542;2023-03-13T02:39:16;16.27;;;6.20;;
462;SDS011;218;51.902;9.542;2023-03-13T02:41:45;9.83;;;4.73;;
462;SDS011;218;51.902;9.542;2023-03-13T02:44:14;9.93;;;4.90;;
462;SDS011;218;51.902;9.542;2023-03-13T02:46:45;9.43;;;5.00;;
462;SDS011;218;51.902;9.542;2023-03-13T02:49:21;11.70;;;4.40;;
462;SDS011;218;51.902;9.542;2023-03-13T02:51:49;12.87;;;4.33;;
462;SDS011;218;51.902;9.542;2023-03-13T02:54:18;7.10;;;4.20;;
462;SDS011;218;51.902;9.542;2023-03-13T02:56:48;12.83;;;5.27;;
462;SDS011;218;51.902;9.542;2023-03-13T02:59:18;9.80;;;4.10;;
462;SDS011;218;51.902;9.542;2023-03-13T03:01:45;12.73;;;5.13;;
462;SDS011;218;51.902;9.542;2023-03-13T03:04:17;12.07;;;4.90;;
462;SDS011;218;51.902;9.542;2023-03-13T03:06:44;15.73;;;5.50;;
462;SDS011;218;51.902;9.542;2023-03-13T03:09:11;9.00;;;4.07;;
462;SDS011;218;51.902;9.542;2023-03-13T03:11:39;10.37;;;4.87;;
462;SDS011;218;51.902;9.542;2023-03-13T03:14:06;7.00;;;3.80;;
462;SDS011;218;51.902;9.542;2023-03-13T03:16:35;11.27;;;5.83;;
462;SDS011;218;51.902;9.542;2023-03-13T03:19:02;10.83;;;4.70;;
462;SDS011;218;51.902;9.542;2023-03-13T03:21:30;9.20;;;4.27;;
462;SDS011;218;51.902;9.542;2023-03-13T03:23:57;8.13;;;3.90;;
462;SDS011;218;51.902;9.542;2023-03-13T03:26:24;15.73;;;4.43;;
462;SDS011;218;51.902;9.542;2023-03-13T03:28:51;10.40;;;4.40;;
462;SDS011;218;51.902;9.542;2023-03-13T03:31:19;9.73;;;3.93;;
462;SDS011;218;51.902;9.542;2023-03-13T03:33:47;12.47;;;4.73;;
462;SDS011;218;51.902;9.542;2023-03-13T03:36:15;15.97;;;5.30;;
462;SDS011;218;51.902;9.542;2023-03-13T03:38:43;7.83;;;4.30;;
462;SDS011;218;51.902;9.542;2023-03-13T03:41:11;9.20;;;4.13;;
462;SDS011;218;51.902;9.542;2023-03-13T03:43:39;11.00;;;4.50;;
462;SDS011;218;51.902;9.542;2023-03-13T03:46:06;7.40;;;3.80;;
462;SDS011;218;51.902;9.542;2023-03-13T03:48:33;7.53;;;5.07;;
462;SDS011;218;51.902;9.542;2023-03-13T03:51:02;10.87;;;5.00;;
462;SDS011;218;51.902;9.542;2023-03-13T03:53:29;9.73;;;4.90;;
462;SDS011;218;51.902;9.542;2023-03-13T03:55:57;11.23;;;6.03;;
462;SDS011;218;51.902;9.542;2023-03-13T03:58:24;8.83;;;4.40;;
462;SDS011;218;51.902;9.542;2023-03-13T04:00:51;12.03;;;4.23;;
462;SDS011;218;51.902;9.542;2023-03-13T04:03:18;15.30;;;5.70;;
462;SDS011;218;51.902;9.542;2023-03-13T04:05:46;17.43;;;6.00;;
462;SDS011;218;51.902;9.542;2023-03-13T04:08:14;12.23;;;5.00;;
462;SDS011;218;51.902;9.542;2023-03-13T04:10:41;9.90;;;5.30;;
462;SDS011;218;51.902;9.542;2023-03-13T04:13:09;9.80;;;4.73;;
462;SDS011;218;51.902;9.542;2023-03-13T04:15:36;13.87;;;4.80;;
462;SDS011;218;51.902;9.542;2023-03-13T04:18:04;10.97;;;5.57;;
462;SDS011;218;51.902;9.542;2023-03-13T04:20:31;9.37;;;5.20;;
462;SDS011;218;51.902;9.542;2023-03-13T04:22:59;10.57;;;5.27;;
462;SDS011;218;51.902;9.542;2023-03-13T04:25:27;12.23;;;5.03;;
462;SDS011;218;51.902;9.542;2023-03-13T04:27:54;9.37;;;4.73;;
462;SDS011;218;51.902;9.542;2023-03-13T04:30:22;14.03;;;4.70;;
462;SDS011;218;51.902;9.542;2023-03-13T04:32:49;12.07;;;5.33;;
462;SDS011;218;51.902;9.542;2023-03-13T04:35:16;7.60;;;5.47;;
462;SDS011;218;51.902;9.542;2023-03-13T04:37:43;13.33;;;5.20;;
462;SDS011;218;51.902;9.542;2023-03-13T04:40:11;8.90;;;4.90;;
462;SDS011;218;51.902;9.542;2023-03-13T04:42:40;14.73;;;4.50;;
462;SDS011;218;51.902;9.542;2023-03-13T04:45:08;9.70;;;4.87;;
462;SDS011;218;51.902;9.542;2023-03-13T04:47:37;9.80;;;3.97;;
462;SDS011;218;51.902;9.542;2023-03-13T04:50:04;7.63;;;3.60;;
462;SDS011;218;51.902;9.542;2023-03-13T04:52:31;9.37;;;4.30;;
462;SDS011;218;51.902;9.542;2023-03-13T04:54:58;7.23;;;3.53;;
462;SDS011;218;51.902;9.542;2023-03-13T04:57:26;11.93;;;4.80;;
462;SDS011;218;51.902;9.542;2023-03-13T04:59:54;6.03;;;3.80;;
462;SDS011;218;51.902;9.542;2023-03-13T05:02:21;8.53;;;3.43;;
462;SDS011;218;51.902;9.542;2023-03-13T05:04:48;8.33;;;3.73;;
462;SDS011;218;51.902;9.542;2023-03-13T05:07:15;8.63;;;4.37;;
462;SDS011;218;51.902;9.542;2023-03-13T05:09:43;8.10;;;4.67;;
462;SDS011;218;51.902;9.542;2023-03-13T05:12:10;9.13;;;4.87;;
462;SDS011;218;51.902;9.542;2023-03-13T05:14:37;7.23;;;4.33;;
462;SDS011;218;51.902;9.542;2023-03-13T05:17:05;10.40;;;4.97;;
462;SDS011;218;51.902;9.542;2023-03-13T05:19:34;8.13;;;4.13;;
462;SDS011;218;51.902;9.542;2023-03-13T05:22:02;9.37;;;4.23;;
462;SDS011;218;51.902;9.542;2023-03-13T05:24:29;9.13;;;3.63;;
462;SDS011;218;51.902;9.542;2023-03-13T05:26:56;12.60;;;5.73;;
462;SDS011;218;51.902;9.542;2023-03-13T05:29:23;12.23;;;6.20;;
462;SDS011;218;51.902;9.542;2023-03-13T05:31:50;7.50;;;5.07;;
462;SDS011;218;51.902;9.542;2023-03-13T05:34:19;5.73;;;4.67;;
462;SDS011;218;51.902;9.542;2023-03-13T05:36:46;9.43;;;4.63;;
462;SDS011;218;51.902;9.542;2023-03-13T05:39:13;8.33;;;3.70;;
462;SDS011;218;51.902;9.542;2023-03-13T05:41:40;11.37;;;4.60;;
462;SDS011;218;51.902;9.542;2023-03-13T05:44:08;10.47;;;3.90;;
462;SDS011;218;51.902;9.542;2023-03-13T05:46:35;9.73;;;3.70;;
462;SDS011;218;51.902;9.542;2023-03-13T05:49:02;5.03;;;3.53;;
462;SDS011;218;51.902;9.542;2023-03-13T05:51:30;4.13;;;3.07;;
462;SDS011;218;51.902;9.542;2023-03-13T05:53:58;5.77;;;3.50;;
462;SDS011;218;51.902;9.542;2023-03-13T05:56:25;8.80;;;3.33;;
462;SDS011;218;51.902;9.542;2023-03-13T05:58:52;5.67;;;3.50;;
462;SDS011;218;51.902;9.542;2023-03-13T06:01:19;5.17;;;3.20;;
462;SDS011;218;51.902;9.542;2023-03-13T06:03:46;4.63;;;3.33;;
462;SDS011;218;51.902;9.542;2023-03-13T06:06:13;6.60;;;4.40;;
462;SDS011;218;51.902;9.542;2023-03-13T06:08:42;3.27;;;2.97;;
462;SDS011;218;51.902;9.542;2023-03-13T06:11:09;4.07;;;3.50;;
462;SDS011;218;51.902;9.542;2023-03-13T06:13:36;9.10;;;4.83;;
462;SDS011;218;51.902;9.542;2023-03-13T06:16:04;5.50;;;3.07;;
462;SDS011;218;51.902;9.542;2023-03-13T06:18:31;5.73;;;3.27;;
462;SDS011;218;51.902;9.542;2023-03-13T06:20:59;3.97;;;3.67;;
462;SDS011;218;51.902;9.542;2023-03-13T06:23:26;2.93;;;2.73;;
462;SDS011;218;51.902;9.542;2023-03-13T06:25:55;2.97;;;2.70;;
462;SDS011;218;51.902;9.542;2023-03-13T06:28:23;3.57;;;3.27;;
462;SDS011;218;51.902;9.542;2023-03-13T06:30:50;4.70;;;3.00;;
462;SDS011;218;51.902;9.542;2023-03-13T06:33:17;4.73;;;4.33;;
462;SDS011;218;51.902;9.542;2023-03-13T06:35:44;3.37;;;3.07;;
462;SDS011;218;51.902;9.542;2023-03-13T06:38:11;3.50;;;3.20;;
462;SDS011;218;51.902;9.542;2023-03-13T06:40:38;4.73;;;3.57;;
462;SDS011;218;51.902;9.542;2023-03-13T06:43:07;7.83;;;5.27;;
462;SDS011;218;51.902;9.542;2023-03-13T06:45:34;4.47;;;4.07;;
462;SDS011;218;51.902;9.542;2023-03-13T06:48:01;6.50;;;3.37;;
462;SDS011;218;51.902;9.542;2023-03-13T06:50:29;5.40;;;3.70;;
462;SDS011;218;51.902;9.542;2023-03-13T06:52:56;4.23;;;3.83;;
462;SDS011;218;51.902;9.542;2023-03-13T06:55:23;3.27;;;2.97;;
462;SDS011;218;51.902;9.542;2023-03-13T06:57:51;3.93;;;3.40;;
462;SDS011;218;51.902;9.542;2023-03-13T07:00:20;3.60;;;3.20;;
462;SDS011;218;51.902;9.542;2023-03-13T07:02:47;6.80;;;3.80;;
462;SDS011;218;51.902;9.542;2023-03-13T07:05:14;4.23;;;3.83;;
462;SDS011;218;51.902;9.542;2023-03-13T07:07:42;4.23;;;3.60;;
462;SDS011;218;51.902;9.542;2023-03-13T07:10:09;3.80;;;3.50;;
462;SDS011;218;51.902;9.542;2023-03-13T07:12:36;4.87;;;3.40;;
462;SDS011;218;51.902;9.542;2023-03-13T07:15:04;3.50;;;3.20;;
462;SDS011;218;51.902;9.542;2023-03-13T07:17:33;5.60;;;3.30;;
462;SDS011;218;51.902;9.542;2023-03-13T07:20:01;3.73;;;3.30;;
462;SDS011;218;51.902;9.542;2023-03-13T07:22:29;3.53;;;3.23;;
462;SDS011;218;51.902;9.542;2023-03-13T07:24:56;3.50;;;3.20;;
462;SDS011;218;51.902;9.542;2023-03-13T07:27:23;3.13;;;2.93;;
462;SDS011;218;51.902;9.542;2023-03-13T07:29:50;2.93;;;2.67;;
462;SDS011;218;51.902;9.542;2023-03-13T07:32:17;4.00;;;2.80;;
462;SDS011;218;51.902;9.542;2023-03-13T07:34:46;3.37;;;3.17;;
462;SDS011;218;51.902;9.542;2023-03-13T07:37:13;3.90;;;3.00;;
462;SDS011;218;51.902;9.542;2023-03-13T07:39:41;4.87;;;2.67;;
462;SDS011;218;51.902;9.542;2023-03-13T07:42:09;3.17;;;2.90;;
462;SDS011;218;51.902;9.542;2023-03-13T07:44:36;3.23;;;3.03;;
462;SDS011;218;51.902;9.542;2023-03-13T07:47:03;3.10;;;2.80;;
462;SDS011;218;51.902;9.542;2023-03-13T07:49:30;3.10;;;2.80;;
462;SDS011;218;51.902;9.542;2023-03-13T07:52:04;2.60;;;2.40;;
462;SDS011;218;51.902;9.542;2023-03-13T07:54:32;5.17;;;4.30;;
462;SDS011;218;51.902;9.542;2023-03-13T07:57:00;4.40;;;4.10;;
462;SDS011;218;51.902;9.542;2023-03-13T07:59:27;4.57;;;2.83;;
462;SDS011;218;51.902;9.542;2023-03-13T08:01:54;3.93;;;2.80;;
462;SDS011;218;51.902;9.542;2023-03-13T08:04:21;2.77;;;2.53;;
462;SDS011;218;51.902;9.542;2023-03-13T08:06:49;3.17;;;2.97;;
462;SDS011;218;51.902;9.542;2023-03-13T08:09:19;2.63;;;2.43;;
462;SDS011;218;51.902;9.542;2023-03-13T08:11:47;4.23;;;3.13;;
462;SDS011;218;51.902;9.542;2023-03-13T08:14:14;3.17;;;2.97;;
462;SDS011;218;51.902;9.542;2023-03-13T08:16:41;3.00;;;2.87;;
462;SDS011;218;51.902;9.542;2023-03-13T08:19:08;3.33;;;2.97;;
462;SDS011;218;51.902;9.542;2023-03-13T08:21:36;3.43;;;3.00;;
462;SDS011;218;51.902;9.542;2023-03-13T08:24:04;4.10;;;2.77;;
462;SDS011;218;51.902;9.542;2023-03-13T08:26:36;3.33;;;3.07;;
462;SDS011;218;51.902;9.542;2023-03-13T08:29:05;3.10;;;2.83;;
462;SDS011;218;51.902;9.542;2023-03-13T08:31:34;3.80;;;2.97;;
462;SDS011;218;51.902;9.542;2023-03-13T08:34:02;3.40;;;3.20;;
462;SDS011;218;51.902;9.542;2023-03-13T08:36:30;5.80;;;3.50;;
462;SDS011;218;51.902;9.542;2023-03-13T08:38:58;3.03;;;2.73;;
462;SDS011;218;51.902;9.542;2023-03-13T08:41:27;4.00;;;3.60;;
462;SDS011;218;51.902;9.542;2023-03-13T08:43:57;4.43;;;4.13;;
462;SDS011;218;51.902;9.542;2023-03-13T08:46:24;2.97;;;2.77;;
462;SDS011;218;51.902;9.542;2023-03-13T08:48:52;3.27;;;3.07;;
462;SDS011;218;51.902;9.542;2023-03-13T08:51:21;2.97;;;2.70;;
462;SDS011;218;51.902;9.542;2023-03-13T08:53:49;2.70;;;2.50;;
462;SDS011;218;51.902;9.542;2023-03-13T08:56:17;5.27;;;3.00;;
462;SDS011;218;51.902;9.542;2023-03-13T08:58:47;3.23;;;2.80;;
462;SDS011;218;51.902;9.542;2023-03-13T09:01:16;2.77;;;2.30;;
462;SDS011;218;51.902;9.542;2023-03-13T09:03:44;2.47;;;2.37;;
462;SDS011;218;51.902;9.542;2023-03-13T09:06:11;3.07;;;2.87;;
462;SDS011;218;51.902;9.542;2023-03-13T09:08:38;3.33;;;2.60;;
462;SDS011;218;51.902;9.542;2023-03-13T09:11:06;2.83;;;2.63;;
462;SDS011;218;51.902;9.542;2023-03-13T09:13:35;3.03;;;2.30;;
462;SDS011;218;51.902;9.542;2023-03-13T09:16:04;2.87;;;2.50;;
462;SDS011;218;51.902;9.542;2023-03-13T09:18:34;3.13;;;2.87;;
462;SDS011;218;51.902;9.542;2023-03-13T09:21:02;3.27;;;2.97;;
462;SDS011;218;51.902;9.542;2023-03-13T09:23:29;6.70;;;2.70;;
462;SDS011;218;51.902;9.542;2023-03-13T09:25:56;3.77;;;3.23;;
462;SDS011;218;51.902;9.542;2023-03-13T09:28:24;2.97;;;2.60;;
462;SDS011;218;51.902;9.542;2023-03-13T09:30:51;2.87;;;2.60;;
462;SDS011;218;51.902;9.542;2023-03-13T09:33:19;2.67;;;2.47;;
462;SDS011;218;51.902;9.542;2023-03-13T09:35:49;2.40;;;2.20;;
462;SDS011;218;51.902;9.542;2023-03-13T09:38:16;3.03;;;2.73;;
462;SDS011;218;51.902;9.542;2023-03-13T09:40:45;2.37;;;2.27;;
462;SDS011;218;51.902;9.542;2023-03-13T09:43:17;4.30;;;2.70;;
462;SDS011;218;51.902;9.542;2023-03-13T09:45:49;2.80;;;2.57;;
462;SDS011;218;51.902;9.542;2023-03-13T09:48:22;2.90;;;2.70;;
462;SDS011;218;51.902;9.542;2023-03-13T09:50:53;2.87;;;2.67;;
462;SDS011;218;51.902;9.542;2023-03-13T09:53:24;2.80;;;2.60;;
462;SDS011;218;51.902;9.542;2023-03-13T09:55:59;4.37;;;2.50;;
462;SDS011;218;51.902;9.542;2023-03-13T09:58:28;3.93;;;2.60;;
462;SDS011;218;51.902;9.542;2023-03-13T10:00:56;2.47;;;2.27;;
462;SDS011;218;51.902;9.542;2023-03-13T10:03:26;3.23;;;2.87;;
462;SDS011;218;51.902;9.542;2023-03-13T10:05:57;3.53;;;2.80;;
462;SDS011;218;51.902;9.542;2023-03-13T10:08:28;2.83;;;2.73;;
462;SDS011;218;51.902;9.542;2023-03-13T10:10:56;3.03;;;2.73;;
462;SDS011;218;51.902;9.542;2023-03-13T10:13:30;2.40;;;2.30;;
462;SDS011;218;51.902;9.542;2023-03-13T10:16:03;2.67;;;2.50;;
462;SDS011;218;51.902;9.542;2023-03-13T10:18:35;2.50;;;2.40;;
462;SDS011;218;51.902;9.542;2023-03-13T10:21:09;2.87;;;2.67;;
462;SDS011;218;51.902;9.542;2023-03-13T10:23:39;3.30;;;2.70;;
462;SDS011;218;51.902;9.542;2023-03-13T10:26:09;2.60;;;2.50;;
462;SDS011;218;51.902;9.542;2023-03-13T10:28:40;3.73;;;3.53;;
462;SDS011;218;51.902;9.542;2023-03-13T10:31:09;3.10;;;2.90;;
462;SDS011;218;51.902;9.542;2023-03-13T10:33:39;3.43;;;2.73;;
462;SDS011;218;51.902;9.542;2023-03-13T10:36:08;3.33;;;3.10;;
462;SDS011;218;51.902;9.542;2023-03-13T10:38:47;3.60;;;2.90;;
462;SDS011;218;51.902;9.542;2023-03-13T10:41:25;2.80;;;2.57;;
462;SDS011;218;51.902;9.542;2023-03-13T10:43:54;3.00;;;2.80;;
462;SDS011;218;51.902;9.542;2023-03-13T10:46:26;3.40;;;3.20;;
462;SDS011;218;51.902;9.542;2023-03-13T10:48:54;2.70;;;2.60;;
462;SDS011;218;51.902;9.542;2023-03-13T10:51:23;3.20;;;3.00;;
462;SDS011;218;51.902;9.542;2023-03-13T10:53:51;5.07;;;3.00;;
462;SDS011;218;51.902;9.542;2023-03-13T10:56:28;3.40;;;3.20;;
462;SDS011;218;51.902;9.542;2023-03-13T10:58:55;4.00;;;2.97;;
462;SDS011;218;51.902;9.542;2023-03-13T11:01:23;4.10;;;3.23;;
462;SDS011;218;51.902;9.542;2023-03-13T11:03:52;4.20;;;3.80;;
462;SDS011;218;51.902;9.542;2023-03-13T11:06:31;3.37;;;2.87;;
462;SDS011;218;51.902;9.542;2023-03-13T11:09:02;2.90;;;2.70;;
462;SDS011;218;51.902;9.542;2023-03-13T11:11:42;3.20;;;3.00;;
462;SDS011;218;51.902;9.542;2023-03-13T11:14:14;3.47;;;3.27;;
462;SDS011;218;51.902;9.542;2023-03-13T11:16:46;3.80;;;2.80;;
462;SDS011;218;51.902;9.542;2023-03-13T11:22:09;3.03;;;2.70;;
462;SDS011;218;51.902;9.542;2023-03-13T11:24:45;2.73;;;2.50;;
462;SDS011;218;51.902;9.542;2023-03-13T11:27:20;4.20;;;3.40;;
462;SDS011;218;51.902;9.542;2023-03-13T11:29:54;3.70;;;3.33;;
462;SDS011;218;51.902;9.542;2023-03-13T11:32:33;3.50;;;3.30;;
462;SDS011;218;51.902;9.542;2023-03-13T11:35:09;2.47;;;2.37;;
462;SDS011;218;51.902;9.542;2023-03-13T11:37:45;2.50;;;2.30;;
462;SDS011;218;51.902;9.542;2023-03-13T11:40:16;3.17;;;2.97;;
462;SDS011;218;51.902;9.542;2023-03-13T11:42:51;3.23;;;2.80;;
462;SDS011;218;51.902;9.542;2023-03-13T11:45:28;3.67;;;3.37;;
462;SDS011;218;51.902;9.542;2023-03-13T11:48:06;2.97;;;2.87;;
462;SDS011;218;51.902;9.542;2023-03-13T11:50:39;3.57;;;2.97;;
462;SDS011;218;51.902;9.542;2023-03-13T11:53:23;2.90;;;2.70;;
462;SDS011;218;51.902;9.542;2023-03-13T11:55:57;2.80;;;2.60;;
462;SDS011;218;51.902;9.542;2023-03-13T11:58:34;2.60;;;2.40;;
462;SDS011;218;51.902;9.542;2023-03-13T12:01:11;2.97;;;2.80;;
462;SDS011;218;51.902;9.542;2023-03-13T12:03:42;2.50;;;2.30;;
462;SDS011;218;51.902;9.542;2023-03-13T12:06:15;2.40;;;2.20;;
462;SDS011;218;51.902;9.542;2023-03-13T12:08:51;2.40;;;2.30;;
462;SDS011;218;51.902;9.542;2023-03-13T12:11:20;2.30;;;2.20;;
462;SDS011;218;51.902;9.542;2023-03-13T12:13:53;2.00;;;1.90;;
462;SDS011;218;51.902;9.542;2023-03-13T12:16:24;2.50;;;2.40;;
462;SDS011;218;51.902;9.542;2023-03-13T12:18:52;2.30;;;2.20;;
462;SDS011;218;51.902;9.542;2023-03-13T12:21:20;1.93;;;1.83;;
462;SDS011;218;51.902;9.542;2023-03-13T12:23:56;2.80;;;2.57;;
462;SDS011;218;51.902;9.542;2023-03-13T12:26:32;1.90;;;1.80;;
462;SDS011;218;51.902;9.542;2023-03-13T12:29:05;2.37;;;2.27;;
462;SDS011;218;51.902;9.542;2023-03-13T12:31:41;2.43;;;2.20;;
462;SDS011;218;51.902;9.542;2023-03-13T12:34:13;1.93;;;1.83;;
462;SDS011;218;51.902;9.542;2023-03-13T12:36:48;2.33;;;2.10;;
462;SDS011;218;51.902;9.542;2023-03-13T12:39:24;2.00;;;1.90;;
462;SDS011;218;51.902;9.542;2023-03-13T12:42:00;2.20;;;2.10;;
462;SDS011;218;51.902;9.542;2023-03-13T12:44:35;2.37;;;2.17;;
462;SDS011;218;51.902;9.542;2023-03-13T12:47:06;2.10;;;1.90;;
462;SDS011;218;51.902;9.542;2023-03-13T12:58:20;2.30;;;2.10;;
462;SDS011;218;51.902;9.542;2023-03-13T13:01:04;2.20;;;2.10;;
462;SDS011;218;51.902;9.542;2023-03-13T13:03:33;1.87;;;1.77;;
462;SDS011;218;51.902;9.542;2023-03-13T13:06:06;1.80;;;1.70;;
462;SDS011;218;51.902;9.542;2023-03-13T13:08:39;1.63;;;1.53;;
462;SDS011;218;51.902;9.542;2023-03-13T13:17:42;1.90;;;1.80;;
462;SDS011;218;51.902;9.542;2023-03-13T13:20:27;2.07;;;1.97;;
462;SDS011;218;51.902;9.542;2023-03-13T13:23:23;2.00;;;1.90;;
462;SDS011;218;51.902;9.542;2023-03-13T13:25:53;1.73;;;1.63;;
462;SDS011;218;51.902;9.542;2023-03-13T13:28:23;2.03;;;1.70;;
462;SDS011;218;51.902;9.542;2023-03-13T13:31:01;1.57;;;1.47;;
462;SDS011;218;51.902;9.542;2023-03-13T13:34:06;1.87;;;1.77;;
462;SDS011;218;51.902;9.542;2023-03-13T13:36:40;2.10;;;2.00;;
462;SDS011;218;51.902;9.542;2023-03-13T13:39:21;1.70;;;1.60;;
462;SDS011;218;51.902;9.542;2023-03-13T13:45:17;1.83;;;1.73;;
462;SDS011;218;51.902;9.542;2023-03-13T13:48:12;2.00;;;1.83;;
462;SDS011;218;51.902;9.542;2023-03-13T13:53:44;2.10;;;2.00;;
462;SDS011;218;51.902;9.542;2023-03-13T13:56:26;2.50;;;2.00;;
462;SDS011;218;51.902;9.542;2023-03-13T13:59:02;1.80;;;1.70;;
462;SDS011;218;51.902;9.542;2023-03-13T14:01:39;1.70;;;1.60;;
462;SDS011;218;51.902;9.542;2023-03-13T14:04:10;1.80;;;1.70;;
462;SDS011;218;51.902;9.542;2023-03-13T14:06:41;1.87;;;1.57;;
462;SDS011;218;51.902;9.542;2023-03-13T14:09:15;1.80;;;1.70;;
462;SDS011;218;51.902;9.542;2023-03-13T14:11:54;1.40;;;1.40;;
462;SDS011;218;51.902;9.542;2023-03-13T14:14:22;1.40;;;1.30;;
462;SDS011;218;51.902;9.542;2023-03-13T14:16:49;1.33;;;1.33;;
462;SDS011;218;51.902;9.542;2023-03-13T14:19:24;1.50;;;1.40;;
462;SDS011;218;51.902;9.542;2023-03-13T14:21:58;1.93;;;1.30;;
462;SDS011;218;51.902;9.542;2023-03-13T14:24:27;1.40;;;1.30;;
462;SDS011;218;51.902;9.542;2023-03-13T14:26:54;1.50;;;1.40;;
462;SDS011;218;51.902;9.542;2023-03-13T14:29:21;1.73;;;1.43;;
462;SDS011;218;51.902;9.542;2023-03-13T14:31:51;1.57;;;1.47;;
462;SDS011;218;51.902;9.542;2023-03-13T14:34:19;1.20;;;1.20;;
462;SDS011;218;51.902;9.542;2023-03-13T14:36:47;1.60;;;1.50;;
462;SDS011;218;51.902;9.542;2023-03-13T14:39:18;1.70;;;1.60;;
462;SDS011;218;51.902;9.542;2023-03-13T14:41:48;1.47;;;1.40;;
462;SDS011;218;51.902;9.542;2023-03-13T14:44:18;1.53;;;1.47;;
462;SDS011;218;51.902;9.542;2023-03-13T14:46:49;1.20;;;1.20;;
462;SDS011;218;51.902;9.542;2023-03-13T14:49:20;1.70;;;1.60;;
462;SDS011;218;51.902;9.542;2023-03-13T14:51:56;1.50;;;1.40;;
462;SDS011;218;51.902;9.542;2023-03-13T14:54:27;1.60;;;1.50;;
462;SDS011;218;51.902;9.542;2023-03-13T14:57:04;2.20;;;1.90;;
462;SDS011;218;51.902;9.542;2023-03-13T14:59:40;1.97;;;1.87;;
462;SDS011;218;51.902;9.542;2023-03-13T15:02:15;1.90;;;1.80;;
462;SDS011;218;51.902;9.542;2023-03-13T15:07:35;1.80;;;1.70;;
462;SDS011;218;51.902;9.542;2023-03-13T15:10:17;1.77;;;1.67;;
462;SDS011;218;51.902;9.542;2023-03-13T15:12:46;2.00;;;1.90;;
462;SDS011;218;51.902;9.542;2023-03-13T15:15:13;1.57;;;1.47;;
462;SDS011;218;51.902;9.542;2023-03-13T15:17:40;1.93;;;1.73;;
462;SDS011;218;51.902;9.542;2023-03-13T15:20:09;1.70;;;1.60;;
462;SDS011;218;51.902;9.542;2023-03-13T15:22:39;2.30;;;2.10;;
462;SDS011;218;51.902;9.542;2023-03-13T15:25:13;1.60;;;1.50;;
462;SDS011;218;51.902;9.542;2023-03-13T15:27:41;2.17;;;1.93;;
462;SDS011;218;51.902;9.542;2023-03-13T15:30:12;4.40;;;2.00;;
462;SDS011;218;51.902;9.542;2023-03-13T15:32:41;1.77;;;1.67;;
462;SDS011;218;51.902;9.542;2023-03-13T15:35:16;1.63;;;1.60;;
462;SDS011;218;51.902;9.542;2023-03-13T15:37:48;1.40;;;1.40;;
462;SDS011;218;51.902;9.542;2023-03-13T15:40:15;1.77;;;1.67;;
462;SDS011;218;51.902;9.542;2023-03-13T15:42:43;1.90;;;1.80;;
462;SDS011;218;51.902;9.542;2023-03-13T15:45:12;2.10;;;2.00;;
462;SDS011;218;51.902;9.542;2023-03-13T15:47:39;2.37;;;1.90;;
462;SDS011;218;51.902;9.542;2023-03-13T15:50:08;2.03;;;1.93;;
462;SDS011;218;51.902;9.542;2023-03-13T15:52:37;1.83;;;1.73;;
462;SDS011;218;51.902;9.542;2023-03-13T15:55:05;1.70;;;1.60;;
462;SDS011;218;51.902;9.542;2023-03-13T15:57:32;1.97;;;1.87;;
462;SDS011;218;51.902;9.542;2023-03-13T16:00:01;2.03;;;1.93;;
462;SDS011;218;51.902;9.542;2023-03-13T16:02:32;2.37;;;2.27;;
462;SDS011;218;51.902;9.542;2023-03-13T16:04:58;2.20;;;2.10;;
462;SDS011;218;51.902;9.542;2023-03-13T16:07:25;2.53;;;2.33;;
462;SDS011;218;51.902;9.542;2023-03-13T16:09:52;2.90;;;2.40;;
462;SDS011;218;51.902;9.542;2023-03-13T16:12:19;2.10;;;2.00;;
462;SDS011;218;51.902;9.542;2023-03-13T16:14:46;1.70;;;1.70;;
462;SDS011;218;51.902;9.542;2023-03-13T16:17:13;2.17;;;2.03;;
462;SDS011;218;51.902;9.542;2023-03-13T16:19:43;2.13;;;2.00;;
462;SDS011;218;51.902;9.542;2023-03-13T16:22:11;2.10;;;2.03;;
462;SDS011;218;51.902;9.542;2023-03-13T16:24:38;3.40;;;2.70;;